sensor_id;sensor_type;location;lat;lon;timestamp;pressure;altitude;pressure_sealevel;temperature;humidity
71149;BME280;59072;42.144;25.200;2023-02-11T00:01:24;102046.88;;;-4.65;63.36
71149;BME280;59072;42.144;25.200;2023-02-11T00:03:50;102037.16;;;-4.80;64.58
71149;BME280;59072;42.144;25.200;2023-02-11T00:06:16;102037.66;;;-5.10;65.25
71149;BME280;59072;42.144;25.200;2023-02-11T00:08:41;102039.47;;;-5.12;65.16
71149;BME280;59072;42.144;25.200;2023-02-11T00:11:11;102060.44;;;-4.77;64.27
71149;BME280;59072;42.144;25.200;2023-02-11T00:13:37;102056.63;;;-4.70;64.12
71149;BME280;59072;42.144;25.200;2023-02-11T00:16:07;102058.06;;;-4.63;63.99
71149;BME280;59072;42.144;25.200;2023-02-11T00:18:33;102061.19;;;-4.56;63.37
71149;BME280;59072;42.144;25.200;2023-02-11T00:21:05;102037.38;;;-4.85;63.13
71149;BME280;59072;42.144;25.200;2023-02-11T00:23:30;102056.34;;;-4.45;62.70
71149;BME280;59072;42.144;25.200;2023-02-11T00:25:56;102055.78;;;-4.52;62.50
71149;BME280;59072;42.144;25.200;2023-02-11T00:28:21;102048.63;;;-4.85;62.78
71149;BME280;59072;42.144;25.200;2023-02-11T00:30:56;102036.03;;;-5.13;63.95
71149;BME280;59072;42.144;25.200;2023-02-11T00:33:22;102053.97;;;-4.88;63.20
71149;BME280;59072;42.144;25.200;2023-02-11T00:35:48;102062.47;;;-5.03;63.93
71149;BME280;59072;42.144;25.200;2023-02-11T00:38:14;102054.31;;;-5.14;64.54
71149;BME280;59072;42.144;25.200;2023-02-11T00:40:39;102043.19;;;-5.18;64.12
71149;BME280;59072;42.144;25.200;2023-02-11T00:43:05;102023.41;;;-5.41;64.25
71149;BME280;59072;42.144;25.200;2023-02-11T00:45:30;102051.16;;;-5.02;63.68
71149;BME280;59072;42.144;25.200;2023-02-11T00:47:58;102048.91;;;-4.91;63.48
71149;BME280;59072;42.144;25.200;2023-02-11T00:50:24;102042.50;;;-4.83;62.99
71149;BME280;59072;42.144;25.200;2023-02-11T00:52:49;102038.00;;;-4.99;64.08
71149;BME280;59072;42.144;25.200;2023-02-11T00:55:15;102045.78;;;-4.99;64.55
71149;BME280;59072;42.144;25.200;2023-02-11T00:57:40;102010.19;;;-5.36;64.66
71149;BME280;59072;42.144;25.200;2023-02-11T01:00:07;102039.38;;;-5.30;65.50
71149;BME280;59072;42.144;25.200;2023-02-11T01:02:33;102040.84;;;-5.24;65.30
71149;BME280;59072;42.144;25.200;2023-02-11T01:04:59;102024.13;;;-5.18;64.47
71149;BME280;59072;42.144;25.200;2023-02-11T01:07:26;102020.31;;;-5.49;65.98
71149;BME280;59072;42.144;25.200;2023-02-11T01:09:52;102027.69;;;-5.60;66.72
71149;BME280;59072;42.144;25.200;2023-02-11T01:12:17;102007.38;;;-5.71;66.77
71149;BME280;59072;42.144;25.200;2023-02-11T01:14:43;102020.94;;;-5.65;67.09
71149;BME280;59072;42.144;25.200;2023-02-11T01:17:08;102038.03;;;-5.38;66.22
71149;BME280;59072;42.144;25.200;2023-02-11T01:19:36;101995.59;;;-5.39;65.22
71149;BME280;59072;42.144;25.200;2023-02-11T01:22:01;102013.59;;;-5.15;65.07
71149;BME280;59072;42.144;25.200;2023-02-11T01:24:27;102028.06;;;-5.10;65.23
71149;BME280;59072;42.144;25.200;2023-02-11T01:26:52;102026.88;;;-5.21;65.23
71149;BME280;59072;42.144;25.200;2023-02-11T01:29:17;102012.13;;;-5.41;65.17
71149;BME280;59072;42.144;25.200;2023-02-11T01:31:43;102035.94;;;-5.30;65.81
71149;BME280;59072;42.144;25.200;2023-02-11T01:34:08;102027.56;;;-5.37;65.18
71149;BME280;59072;42.144;25.200;2023-02-11T01:36:34;101997.28;;;-5.58;65.53
71149;BME280;59072;42.144;25.200;2023-02-11T01:38:59;102004.25;;;-5.59;65.21
71149;BME280;59072;42.144;25.200;2023-02-11T01:41:24;102001.31;;;-5.51;65.25
71149;BME280;59072;42.144;25.200;2023-02-11T01:43:50;101998.06;;;-5.56;65.11
71149;BME280;59072;42.144;25.200;2023-02-11T01:46:34;102011.72;;;-5.51;65.30
71149;BME280;59072;42.144;25.200;2023-02-11T01:49:09;102013.53;;;-5.53;65.74
71149;BME280;59072;42.144;25.200;2023-02-11T01:51:41;102015.09;;;-5.49;66.51
71149;BME280;59072;42.144;25.200;2023-02-11T01:54:10;102008.91;;;-5.47;66.13
71149;BME280;59072;42.144;25.200;2023-02-11T01:56:56;102021.44;;;-5.36;65.63
71149;BME280;59072;42.144;25.200;2023-02-11T02:07:53;101973.06;;;-5.40;65.00
71149;BME280;59072;42.144;25.200;2023-02-11T02:10:23;102015.13;;;-5.11;63.01
71149;BME280;59072;42.144;25.200;2023-02-11T02:12:50;101993.47;;;-5.31;63.73
71149;BME280;59072;42.144;25.200;2023-02-11T02:29:10;102010.56;;;-5.85;65.75
71149;BME280;59072;42.144;25.200;2023-02-11T02:31:58;102010.22;;;-5.96;65.78
71149;BME280;59072;42.144;25.200;2023-02-11T02:34:39;102011.53;;;-6.29;66.88
71149;BME280;59072;42.144;25.200;2023-02-11T02:37:14;101998.34;;;-6.24;65.98
71149;BME280;59072;42.144;25.200;2023-02-11T02:39:44;101994.28;;;-6.09;65.95
71149;BME280;59072;42.144;25.200;2023-02-11T02:42:11;102001.34;;;-5.92;65.76
71149;BME280;59072;42.144;25.200;2023-02-11T02:44:38;102017.84;;;-5.93;65.92
71149;BME280;59072;42.144;25.200;2023-02-11T02:47:03;101982.75;;;-6.44;67.62
71149;BME280;59072;42.144;25.200;2023-02-11T02:49:29;102014.72;;;-6.22;66.90
71149;BME280;59072;42.144;25.200;2023-02-11T02:52:15;102015.22;;;-6.56;67.48
71149;BME280;59072;42.144;25.200;2023-02-11T03:00:33;102022.75;;;-5.67;66.23
71149;BME280;59072;42.144;25.200;2023-02-11T03:06:06;101985.00;;;-6.15;66.41
71149;BME280;59072;42.144;25.200;2023-02-11T03:09:00;102002.25;;;-6.14;66.93
71149;BME280;59072;42.144;25.200;2023-02-11T03:11:24;102004.47;;;-5.84;65.89
71149;BME280;59072;42.144;25.200;2023-02-11T03:13:50;102011.09;;;-6.18;67.52
71149;BME280;59072;42.144;25.200;2023-02-11T03:16:23;101983.66;;;-6.45;68.95
71149;BME280;59072;42.144;25.200;2023-02-11T03:18:56;102010.19;;;-6.17;68.72
71149;BME280;59072;42.144;25.200;2023-02-11T03:21:29;101980.97;;;-6.22;68.43
71149;BME280;59072;42.144;25.200;2023-02-11T03:24:00;102012.16;;;-6.01;67.64
71149;BME280;59072;42.144;25.200;2023-02-11T03:26:34;102002.25;;;-6.14;67.33
71149;BME280;59072;42.144;25.200;2023-02-11T03:34:18;101998.47;;;-6.48;68.50
71149;BME280;59072;42.144;25.200;2023-02-11T03:36:53;101977.53;;;-6.89;69.29
71149;BME280;59072;42.144;25.200;2023-02-11T03:39:36;102011.06;;;-7.06;70.65
71149;BME280;59072;42.144;25.200;2023-02-11T03:42:07;102007.47;;;-6.58;69.26
71149;BME280;59072;42.144;25.200;2023-02-11T03:44:48;101981.19;;;-6.49;68.59
71149;BME280;59072;42.144;25.200;2023-02-11T03:47:18;101997.22;;;-6.39;68.44
71149;BME280;59072;42.144;25.200;2023-02-11T03:49:46;102002.41;;;-6.17;68.32
71149;BME280;59072;42.144;25.200;2023-02-11T03:52:14;101999.53;;;-6.31;68.85
71149;BME280;59072;42.144;25.200;2023-02-11T03:54:42;101998.84;;;-6.36;69.39
71149;BME280;59072;42.144;25.200;2023-02-11T03:57:10;102007.84;;;-6.23;68.80
71149;BME280;59072;42.144;25.200;2023-02-11T03:59:55;102013.81;;;-6.21;68.78
71149;BME280;59072;42.144;25.200;2023-02-11T04:02:23;102003.81;;;-6.10;68.92
71149;BME280;59072;42.144;25.200;2023-02-11T04:04:49;101991.81;;;-6.12;68.94
71149;BME280;59072;42.144;25.200;2023-02-11T04:07:17;101980.63;;;-6.79;69.88
71149;BME280;59072;42.144;25.200;2023-02-11T04:09:42;101984.75;;;-7.42;69.78
71149;BME280;59072;42.144;25.200;2023-02-11T04:12:08;101987.13;;;-7.36;69.75
71149;BME280;59072;42.144;25.200;2023-02-11T04:14:33;101973.94;;;-7.54;69.05
71149;BME280;59072;42.144;25.200;2023-02-11T04:16:59;102004.44;;;-7.87;70.58
71149;BME280;59072;42.144;25.200;2023-02-11T04:19:24;101989.25;;;-7.96;71.86
71149;BME280;59072;42.144;25.200;2023-02-11T04:21:49;101986.94;;;-8.05;71.44
71149;BME280;59072;42.144;25.200;2023-02-11T04:24:15;102007.41;;;-7.48;69.92
71149;BME280;59072;42.144;25.200;2023-02-11T04:26:40;102008.91;;;-7.65;69.93
71149;BME280;59072;42.144;25.200;2023-02-11T04:29:06;101979.22;;;-7.57;70.00
71149;BME280;59072;42.144;25.200;2023-02-11T04:31:31;101960.31;;;-7.35;69.70
71149;BME280;59072;42.144;25.200;2023-02-11T04:33:56;101997.88;;;-7.23;70.36
71149;BME280;59072;42.144;25.200;2023-02-11T04:36:22;101968.78;;;-7.32;70.58
71149;BME280;59072;42.144;25.200;2023-02-11T04:38:47;101993.28;;;-7.39;71.97
71149;BME280;59072;42.144;25.200;2023-02-11T04:41:13;101985.69;;;-7.21;72.01
71149;BME280;59072;42.144;25.200;2023-02-11T04:43:38;101949.41;;;-7.21;71.69
71149;BME280;59072;42.144;25.200;2023-02-11T04:46:04;101975.69;;;-7.31;74.93
71149;BME280;59072;42.144;25.200;2023-02-11T04:48:29;101962.09;;;-7.61;76.07
71149;BME280;59072;42.144;25.200;2023-02-11T04:50:54;101977.94;;;-7.45;77.11
71149;BME280;59072;42.144;25.200;2023-02-11T04:53:20;101959.78;;;-7.69;76.54
71149;BME280;59072;42.144;25.200;2023-02-11T04:55:48;101991.34;;;-7.10;74.93
71149;BME280;59072;42.144;25.200;2023-02-11T04:58:15;101984.78;;;-6.75;72.47
71149;BME280;59072;42.144;25.200;2023-02-11T05:00:40;101961.94;;;-6.87;72.10
71149;BME280;59072;42.144;25.200;2023-02-11T05:03:08;101981.78;;;-6.86;73.17
71149;BME280;59072;42.144;25.200;2023-02-11T05:05:37;101984.16;;;-6.80;73.32
71149;BME280;59072;42.144;25.200;2023-02-11T05:08:03;101985.28;;;-6.87;72.92
71149;BME280;59072;42.144;25.200;2023-02-11T05:10:29;101955.00;;;-7.09;73.32
71149;BME280;59072;42.144;25.200;2023-02-11T05:12:54;101974.53;;;-7.00;73.08
71149;BME280;59072;42.144;25.200;2023-02-11T05:15:19;101990.03;;;-6.76;72.38
71149;BME280;59072;42.144;25.200;2023-02-11T05:17:45;101986.97;;;-6.64;70.45
71149;BME280;59072;42.144;25.200;2023-02-11T05:20:11;101998.75;;;-6.77;72.79
71149;BME280;59072;42.144;25.200;2023-02-11T05:22:36;101972.75;;;-7.21;72.55
71149;BME280;59072;42.144;25.200;2023-02-11T05:25:01;101967.50;;;-6.96;72.27
71149;BME280;59072;42.144;25.200;2023-02-11T05:27:27;101948.66;;;-6.79;71.53
71149;BME280;59072;42.144;25.200;2023-02-11T05:29:52;101972.56;;;-6.49;70.57
71149;BME280;59072;42.144;25.200;2023-02-11T05:32:18;102006.06;;;-6.43;70.49
71149;BME280;59072;42.144;25.200;2023-02-11T05:34:43;101995.19;;;-6.53;70.32
71149;BME280;59072;42.144;25.200;2023-02-11T05:37:09;101961.94;;;-6.65;70.50
71149;BME280;59072;42.144;25.200;2023-02-11T05:39:34;101975.19;;;-6.51;69.61
71149;BME280;59072;42.144;25.200;2023-02-11T05:41:59;101988.78;;;-6.44;69.72
71149;BME280;59072;42.144;25.200;2023-02-11T05:44:25;101968.00;;;-6.66;70.29
71149;BME280;59072;42.144;25.200;2023-02-11T05:46:50;101982.81;;;-6.68;72.00
71149;BME280;59072;42.144;25.200;2023-02-11T05:49:16;101985.00;;;-6.79;72.50
71149;BME280;59072;42.144;25.200;2023-02-11T05:51:44;101975.03;;;-6.68;72.30
71149;BME280;59072;42.144;25.200;2023-02-11T05:54:10;101978.63;;;-6.28;71.09
71149;BME280;59072;42.144;25.200;2023-02-11T05:56:35;102006.56;;;-6.13;70.33
71149;BME280;59072;42.144;25.200;2023-02-11T05:59:00;101998.38;;;-6.03;70.18
71149;BME280;59072;42.144;25.200;2023-02-11T06:01:26;102002.13;;;-5.90;69.49
71149;BME280;59072;42.144;25.200;2023-02-11T06:03:51;102007.06;;;-5.84;69.25
71149;BME280;59072;42.144;25.200;2023-02-11T06:06:17;102007.84;;;-5.82;69.26
71149;BME280;59072;42.144;25.200;2023-02-11T06:08:42;101995.75;;;-5.83;68.67
71149;BME280;59072;42.144;25.200;2023-02-11T06:11:08;101992.09;;;-5.79;68.12
71149;BME280;59072;42.144;25.200;2023-02-11T06:13:34;102001.13;;;-5.47;67.70
71149;BME280;59072;42.144;25.200;2023-02-11T06:16:01;102004.16;;;-5.18;66.40
71149;BME280;59072;42.144;25.200;2023-02-11T06:18:29;101987.56;;;-5.34;66.74
71149;BME280;59072;42.144;25.200;2023-02-11T06:20:55;102016.47;;;-5.21;66.38
71149;BME280;59072;42.144;25.200;2023-02-11T06:23:20;102008.19;;;-5.11;66.65
71149;BME280;59072;42.144;25.200;2023-02-11T06:25:46;102011.19;;;-5.01;66.58
71149;BME280;59072;42.144;25.200;2023-02-11T06:28:11;101986.03;;;-5.00;66.87
71149;BME280;59072;42.144;25.200;2023-02-11T06:30:37;101995.59;;;-5.01;67.70
71149;BME280;59072;42.144;25.200;2023-02-11T06:33:03;102017.19;;;-4.80;66.87
71149;BME280;59072;42.144;25.200;2023-02-11T06:35:31;101991.94;;;-4.97;67.56
71149;BME280;59072;42.144;25.200;2023-02-11T06:37:58;101989.81;;;-5.27;68.53
71149;BME280;59072;42.144;25.200;2023-02-11T06:40:23;101984.34;;;-5.20;68.72
71149;BME280;59072;42.144;25.200;2023-02-11T06:42:48;102019.34;;;-5.28;69.70
71149;BME280;59072;42.144;25.200;2023-02-11T06:45:14;102014.44;;;-5.15;70.26
71149;BME280;59072;42.144;25.200;2023-02-11T06:47:40;102009.25;;;-4.96;69.90
71149;BME280;59072;42.144;25.200;2023-02-11T06:50:09;101999.22;;;-4.67;69.37
71149;BME280;59072;42.144;25.200;2023-02-11T06:52:35;101985.47;;;-4.88;69.73
71149;BME280;59072;42.144;25.200;2023-02-11T06:55:03;102009.25;;;-4.96;71.21
71149;BME280;59072;42.144;25.200;2023-02-11T06:57:33;101977.53;;;-5.04;70.80
71149;BME280;59072;42.144;25.200;2023-02-11T06:59:59;102008.06;;;-4.52;70.87
71149;BME280;59072;42.144;25.200;2023-02-11T07:02:24;101984.03;;;-4.76;70.59
71149;BME280;59072;42.144;25.200;2023-02-11T07:04:50;101971.19;;;-4.62;71.52
71149;BME280;59072;42.144;25.200;2023-02-11T07:07:15;102000.22;;;-4.16;70.58
71149;BME280;59072;42.144;25.200;2023-02-11T07:09:41;101980.59;;;-4.06;71.52
71149;BME280;59072;42.144;25.200;2023-02-11T07:12:08;101998.69;;;-3.85;71.48
71149;BME280;59072;42.144;25.200;2023-02-11T07:14:34;101986.09;;;-3.44;69.83
71149;BME280;59072;42.144;25.200;2023-02-11T07:17:00;101989.50;;;-3.26;68.03
71149;BME280;59072;42.144;25.200;2023-02-11T07:19:25;101951.56;;;-3.65;67.30
71149;BME280;59072;42.144;25.200;2023-02-11T07:21:50;101988.59;;;-3.25;68.01
71149;BME280;59072;42.144;25.200;2023-02-11T07:24:16;101994.69;;;-3.08;67.50
71149;BME280;59072;42.144;25.200;2023-02-11T07:26:41;101987.63;;;-3.06;66.48
71149;BME280;59072;42.144;25.200;2023-02-11T07:29:07;101960.56;;;-3.05;67.55
71149;BME280;59072;42.144;25.200;2023-02-11T07:31:32;101978.09;;;-3.07;67.54
71149;BME280;59072;42.144;25.200;2023-02-11T07:33:59;101928.66;;;-3.26;67.15
71149;BME280;59072;42.144;25.200;2023-02-11T07:36:29;101984.41;;;-3.11;67.51
71149;BME280;59072;42.144;25.200;2023-02-11T07:38:56;101949.72;;;-2.81;67.45
71149;BME280;59072;42.144;25.200;2023-02-11T07:41:22;101952.03;;;-2.45;65.66
71149;BME280;59072;42.144;25.200;2023-02-11T07:43:48;101957.22;;;-2.15;64.77
71149;BME280;59072;42.144;25.200;2023-02-11T07:46:17;101959.34;;;-1.77;64.55
71149;BME280;59072;42.144;25.200;2023-02-11T07:48:42;101975.81;;;-1.32;62.34
71149;BME280;59072;42.144;25.200;2023-02-11T07:51:10;101971.69;;;-1.50;61.31
71149;BME280;59072;42.144;25.200;2023-02-11T07:53:36;101974.88;;;-1.16;61.53
71149;BME280;59072;42.144;25.200;2023-02-11T07:56:03;101956.34;;;-1.28;59.54
71149;BME280;59072;42.144;25.200;2023-02-11T07:58:28;101960.78;;;-1.43;60.33
71149;BME280;59072;42.144;25.200;2023-02-11T08:01:04;101984.56;;;-1.04;59.50
71149;BME280;59072;42.144;25.200;2023-02-11T08:03:31;101984.03;;;-0.82;59.08
71149;BME280;59072;42.144;25.200;2023-02-11T08:05:57;101976.78;;;-0.64;58.26
71149;BME280;59072;42.144;25.200;2023-02-11T08:08:25;101934.22;;;-0.95;59.30
71149;BME280;59072;42.144;25.200;2023-02-11T08:10:51;101977.97;;;-0.28;57.53
71149;BME280;59072;42.144;25.200;2023-02-11T08:13:16;101952.56;;;-0.41;56.35
71149;BME280;59072;42.144;25.200;2023-02-11T08:15:44;101973.34;;;-0.25;54.85
71149;BME280;59072;42.144;25.200;2023-02-11T08:18:10;101971.44;;;-0.35;55.72
71149;BME280;59072;42.144;25.200;2023-02-11T08:20:35;101950.06;;;-0.29;56.58
71149;BME280;59072;42.144;25.200;2023-02-11T08:23:01;101970.25;;;0.34;56.10
71149;BME280;59072;42.144;25.200;2023-02-11T08:25:27;101964.47;;;0.55;55.17
71149;BME280;59072;42.144;25.200;2023-02-11T08:27:52;101961.09;;;0.53;53.31
71149;BME280;59072;42.144;25.200;2023-02-11T08:30:18;101949.25;;;0.60;52.59
71149;BME280;59072;42.144;25.200;2023-02-11T08:32:43;101958.34;;;0.67;51.48
71149;BME280;59072;42.144;25.200;2023-02-11T08:35:08;101940.13;;;0.90;51.52
71149;BME280;59072;42.144;25.200;2023-02-11T08:37:36;101937.47;;;1.03;51.52
71149;BME280;59072;42.144;25.200;2023-02-11T08:40:03;101949.22;;;1.34;50.45
71149;BME280;59072;42.144;25.200;2023-02-11T08:42:28;101931.19;;;1.16;50.35
71149;BME280;59072;42.144;25.200;2023-02-11T08:44:53;101954.69;;;1.31;49.99
71149;BME280;59072;42.144;25.200;2023-02-11T08:47:19;101955.75;;;1.52;50.06
71149;BME280;59072;42.144;25.200;2023-02-11T08:49:44;101933.41;;;1.82;48.43
71149;BME280;59072;42.144;25.200;2023-02-11T08:52:10;101948.66;;;1.66;50.22
71149;BME280;59072;42.144;25.200;2023-02-11T08:54:36;101943.53;;;1.40;49.15
71149;BME280;59072;42.144;25.200;2023-02-11T08:57:01;101937.72;;;1.59;49.07
71149;BME280;59072;42.144;25.200;2023-02-11T08:59:27;101950.03;;;1.58;49.55
71149;BME280;59072;42.144;25.200;2023-02-11T09:01:52;101935.25;;;1.69;49.56
71149;BME280;59072;42.144;25.200;2023-02-11T09:04:18;101937.72;;;1.59;50.06
71149;BME280;59072;42.144;25.200;2023-02-11T09:06:44;101946.59;;;2.16;48.65
71149;BME280;59072;42.144;25.200;2023-02-11T09:09:14;101945.94;;;1.90;48.93
71149;BME280;59072;42.144;25.200;2023-02-11T09:11:40;101926.81;;;1.88;48.06
71149;BME280;59072;42.144;25.200;2023-02-11T09:14:07;101922.41;;;1.88;48.03
71149;BME280;59072;42.144;25.200;2023-02-11T09:16:34;101950.22;;;2.26;46.59
71149;BME280;59072;42.144;25.200;2023-02-11T09:19:01;101933.22;;;2.19;48.53
71149;BME280;59072;42.144;25.200;2023-02-11T09:21:28;101915.47;;;2.77;47.54
71149;BME280;59072;42.144;25.200;2023-02-11T09:23:54;101935.78;;;2.98;46.35
71149;BME280;59072;42.144;25.200;2023-02-11T09:26:22;101925.69;;;3.14;46.25
71149;BME280;59072;42.144;25.200;2023-02-11T09:28:51;101915.53;;;3.10;46.22
71149;BME280;59072;42.144;25.200;2023-02-11T09:31:19;101896.25;;;3.41;46.18
71149;BME280;59072;42.144;25.200;2023-02-11T09:33:47;101926.69;;;3.88;45.10
71149;BME280;59072;42.144;25.200;2023-02-11T09:36:19;101912.72;;;3.97;44.45
71149;BME280;59072;42.144;25.200;2023-02-11T09:38:45;101896.25;;;4.35;45.27
71149;BME280;59072;42.144;25.200;2023-02-11T09:43:56;101881.28;;;4.15;40.28
71149;BME280;59072;42.144;25.200;2023-02-11T09:46:24;101896.91;;;4.28;41.20
71149;BME280;59072;42.144;25.200;2023-02-11T09:48:52;101898.28;;;4.01;41.53
71149;BME280;59072;42.144;25.200;2023-02-11T09:51:41;101897.13;;;4.25;40.78
71149;BME280;59072;42.144;25.200;2023-02-11T09:54:19;101864.38;;;4.27;40.03
71149;BME280;59072;42.144;25.200;2023-02-11T09:56:47;101880.63;;;4.73;39.83
71149;BME280;59072;42.144;25.200;2023-02-11T09:59:16;101877.69;;;4.66;39.69
71149;BME280;59072;42.144;25.200;2023-02-11T10:02:14;101874.56;;;5.11;39.33
71149;BME280;59072;42.144;25.200;2023-02-11T10:18:50;101829.91;;;5.75;36.07
71149;BME280;59072;42.144;25.200;2023-02-11T10:21:30;101803.34;;;5.94;36.53
71149;BME280;59072;42.144;25.200;2023-02-11T10:24:02;101817.88;;;5.90;36.71
71149;BME280;59072;42.144;25.200;2023-02-11T10:26:30;101810.81;;;5.81;36.92
71149;BME280;59072;42.144;25.200;2023-02-11T10:29:00;101814.41;;;5.80;37.20
71149;BME280;59072;42.144;25.200;2023-02-11T10:31:34;101783.91;;;5.86;36.63
71149;BME280;59072;42.144;25.200;2023-02-11T10:34:04;101806.34;;;6.19;36.59
71149;BME280;59072;42.144;25.200;2023-02-11T10:36:36;101778.66;;;6.77;36.56
71149;BME280;59072;42.144;25.200;2023-02-11T10:39:22;101793.81;;;7.29;34.47
71149;BME280;59072;42.144;25.200;2023-02-11T10:44:25;101761.25;;;7.18;33.84
71149;BME280;59072;42.144;25.200;2023-02-11T10:46:52;101760.78;;;6.79;34.02
71149;BME280;59072;42.144;25.200;2023-02-11T10:49:45;101764.50;;;6.68;35.90
71149;BME280;59072;42.144;25.200;2023-02-11T10:52:25;101767.19;;;7.64;32.83
71149;BME280;59072;42.144;25.200;2023-02-11T10:55:05;101759.81;;;7.50;32.56
71149;BME280;59072;42.144;25.200;2023-02-11T10:57:59;101754.16;;;7.27;33.60
71149;BME280;59072;42.144;25.200;2023-02-11T11:00:27;101752.41;;;6.56;34.16
71149;BME280;59072;42.144;25.200;2023-02-11T11:02:59;101741.38;;;7.49;32.31
71149;BME280;59072;42.144;25.200;2023-02-11T11:05:46;101739.25;;;8.45;31.76
71149;BME280;59072;42.144;25.200;2023-02-11T11:08:12;101740.19;;;8.20;32.25
71149;BME280;59072;42.144;25.200;2023-02-11T11:10:43;101733.94;;;9.11;31.51
71149;BME280;59072;42.144;25.200;2023-02-11T11:18:38;101707.69;;;9.00;30.22
71149;BME280;59072;42.144;25.200;2023-02-11T11:21:05;101695.38;;;8.41;29.76
71149;BME280;59072;42.144;25.200;2023-02-11T11:23:34;101710.59;;;8.23;30.09
71149;BME280;59072;42.144;25.200;2023-02-11T11:26:09;101685.72;;;8.32;30.20
71149;BME280;59072;42.144;25.200;2023-02-11T11:31:26;101674.63;;;8.70;29.84
71149;BME280;59072;42.144;25.200;2023-02-11T11:33:54;101682.72;;;9.25;29.73
71149;BME280;59072;42.144;25.200;2023-02-11T11:36:29;101681.66;;;9.35;30.08
71149;BME280;59072;42.144;25.200;2023-02-11T11:38:57;101672.09;;;8.93;29.60
71149;BME280;59072;42.144;25.200;2023-02-11T11:41:27;101675.41;;;8.29;31.08
71149;BME280;59072;42.144;25.200;2023-02-11T11:50:04;101652.50;;;11.11;26.84
71149;BME280;59072;42.144;25.200;2023-02-11T11:55:23;101662.56;;;10.25;27.45
71149;BME280;59072;42.144;25.200;2023-02-11T11:57:49;101651.19;;;10.77;27.19
71149;BME280;59072;42.144;25.200;2023-02-11T12:00:23;101640.59;;;10.23;27.37
71149;BME280;59072;42.144;25.200;2023-02-11T12:05:25;101636.03;;;10.09;27.53
71149;BME280;59072;42.144;25.200;2023-02-11T12:16:01;101615.13;;;11.11;26.51
71149;BME280;59072;42.144;25.200;2023-02-11T12:18:39;101624.19;;;10.57;26.29
71149;BME280;59072;42.144;25.200;2023-02-11T12:26:52;101615.88;;;12.51;24.30
71149;BME280;59072;42.144;25.200;2023-02-11T12:29:36;101598.97;;;12.78;24.46
71149;BME280;59072;42.144;25.200;2023-02-11T12:40:26;101593.06;;;12.55;23.46
71149;BME280;59072;42.144;25.200;2023-02-11T12:43:23;101581.00;;;12.72;23.45
71149;BME280;59072;42.144;25.200;2023-02-11T12:59:12;101559.25;;;14.38;21.14
71149;BME280;59072;42.144;25.200;2023-02-11T13:01:43;101561.31;;;14.90;21.30
71149;BME280;59072;42.144;25.200;2023-02-11T13:04:20;101544.28;;;15.09;21.26
71149;BME280;59072;42.144;25.200;2023-02-11T13:07:00;101551.94;;;15.05;19.90
71149;BME280;59072;42.144;25.200;2023-02-11T13:09:35;101554.72;;;14.32;21.21
71149;BME280;59072;42.144;25.200;2023-02-11T13:12:04;101536.94;;;14.78;20.00
71149;BME280;59072;42.144;25.200;2023-02-11T13:14:51;101535.81;;;15.12;19.01
71149;BME280;59072;42.144;25.200;2023-02-11T13:20:31;101543.84;;;15.57;19.19
71149;BME280;59072;42.144;25.200;2023-02-11T13:23:22;101539.28;;;15.96;18.84
71149;BME280;59072;42.144;25.200;2023-02-11T13:26:04;101530.31;;;16.27;18.21
71149;BME280;59072;42.144;25.200;2023-02-11T13:29:14;101538.28;;;17.03;17.40
71149;BME280;59072;42.144;25.200;2023-02-11T13:31:54;101495.28;;;17.26;16.91
71149;BME280;59072;42.144;25.200;2023-02-11T13:40:20;101522.50;;;17.79;16.73
71149;BME280;59072;42.144;25.200;2023-02-11T13:42:52;101502.84;;;18.84;16.02
71149;BME280;59072;42.144;25.200;2023-02-11T13:45:43;101514.69;;;19.24;15.58
71149;BME280;59072;42.144;25.200;2023-02-11T13:48:30;101508.47;;;18.95;15.48
71149;BME280;59072;42.144;25.200;2023-02-11T13:51:09;101496.47;;;18.91;15.27
71149;BME280;59072;42.144;25.200;2023-02-11T13:53:51;101499.66;;;19.45;14.73
71149;BME280;59072;42.144;25.200;2023-02-11T13:56:38;101500.44;;;19.28;14.54
71149;BME280;59072;42.144;25.200;2023-02-11T13:59:51;101485.78;;;20.04;14.53
71149;BME280;59072;42.144;25.200;2023-02-11T14:02:31;101504.63;;;21.16;13.33
71149;BME280;59072;42.144;25.200;2023-02-11T14:10:53;101486.41;;;20.28;14.51
71149;BME280;59072;42.144;25.200;2023-02-11T14:13:36;101472.00;;;20.05;14.52
71149;BME280;59072;42.144;25.200;2023-02-11T14:16:22;101466.44;;;19.95;14.70
71149;BME280;59072;42.144;25.200;2023-02-11T14:21:18;101468.72;;;20.81;14.39
71149;BME280;59072;42.144;25.200;2023-02-11T14:23:48;101475.22;;;21.30;14.16
71149;BME280;59072;42.144;25.200;2023-02-11T14:28:57;101479.34;;;20.88;13.75
71149;BME280;59072;42.144;25.200;2023-02-11T14:31:37;101460.66;;;20.86;13.55
71149;BME280;59072;42.144;25.200;2023-02-11T14:34:07;101476.22;;;20.74;14.27
71149;BME280;59072;42.144;25.200;2023-02-11T14:36:53;101463.94;;;20.89;13.89
71149;BME280;59072;42.144;25.200;2023-02-11T14:42:27;101444.13;;;21.15;13.96
71149;BME280;59072;42.144;25.200;2023-02-11T14:44:58;101466.19;;;21.51;13.58
71149;BME280;59072;42.144;25.200;2023-02-11T14:50:05;101453.91;;;20.67;14.33
71149;BME280;59072;42.144;25.200;2023-02-11T14:52:33;101447.66;;;19.26;15.36
71149;BME280;59072;42.144;25.200;2023-02-11T14:55:26;101458.16;;;17.10;16.18
71149;BME280;59072;42.144;25.200;2023-02-11T14:58:17;101448.22;;;15.36;18.08
71149;BME280;59072;42.144;25.200;2023-02-11T15:03:31;101430.81;;;13.02;20.24
71149;BME280;59072;42.144;25.200;2023-02-11T15:08:46;101437.53;;;11.37;22.07
71149;BME280;59072;42.144;25.200;2023-02-11T15:11:16;101412.69;;;10.63;22.91
71149;BME280;59072;42.144;25.200;2023-02-11T15:13:42;101423.44;;;10.25;24.22
71149;BME280;59072;42.144;25.200;2023-02-11T15:16:19;101403.44;;;9.77;24.57
71149;BME280;59072;42.144;25.200;2023-02-11T15:18:48;101406.13;;;9.77;24.93